Time;durP1;ratioP1;P1;durP2;ratioP2;P2;SDS_P1;SDS_P2;PMS_P1;PMS_P2;Temp;Humidity;BMP_temperature;BMP_pressure;BME280_temperature;BME280_humidity;BME280_pressure;Samples;Min_cycle;Max_cycle;Signal;HPM_P1;HPM_P2
2022/04/22 00:00:22;;;;;;;;;;;10.50;99.90;;;;;;4988585;28;19929;-68
2022/04/22 00:02:47;;;;;;;;;;;10.50;99.90;;;;;;5008829;28;19922;-69
2022/04/22 00:05:13;;;;;;;;;;;10.40;99.90;;;;;;5008799;28;19922;-69
2022/04/22 00:07:39;;;;;;;;;;;10.40;99.90;;;;;;5009304;28;20404;-68
2022/04/22 00:10:05;;;;;;;;;;;10.30;99.90;;;;;;5003729;28;19952;-69
2022/04/22 00:12:31;;;;;;;;;;;10.30;99.90;;;;;;5006664;28;20000;-70
2022/04/22 00:14:57;;;;;;;;;;;10.30;99.90;;;;;;5002894;28;20005;-68
2022/04/22 00:17:22;;;;;;;;;;;10.20;99.90;;;;;;5018460;28;19928;-68
2022/04/22 00:19:48;;;;;;;;;;;10.10;99.90;;;;;;5005298;28;19921;-68
2022/04/22 00:22:13;;;;;;;;;;;10.10;99.90;;;;;;5006572;28;19957;-68
2022/04/22 00:24:39;;;;;;;;;;;10.10;99.90;;;;;;4999820;28;20302;-69
2022/04/22 00:27:04;;;;;;;;;;;10.00;99.90;;;;;;5006874;28;19984;-68
2022/04/22 00:29:30;;;;;;;;;;;10.00;99.90;;;;;;5000111;28;19936;-68
2022/04/22 00:31:56;;;;;;;;;;;10.00;99.90;;;;;;5020018;28;19922;-67
2022/04/22 00:34:21;;;;;;;;;;;9.90;99.90;;;;;;4998865;28;19984;-68
2022/04/22 00:36:47;;;;;;;;;;;9.90;99.90;;;;;;5002173;28;19929;-69
2022/04/22 00:39:12;;;;;;;;;;;9.80;99.90;;;;;;5007365;28;19929;-68
2022/04/22 00:41:38;;;;;;;;;;;9.90;99.90;;;;;;5004032;28;19932;-69
2022/04/22 00:44:04;;;;;;;;;;;10.10;99.90;;;;;;5005095;28;19922;-69
2022/04/22 00:46:29;;;;;;;;;;;9.70;99.90;;;;;;5009971;28;19975;-69
2022/04/22 00:48:55;;;;;;;;;;;9.70;99.90;;;;;;5001004;28;20314;-69
2022/04/22 00:51:22;;;;;;;;;;;10.50;99.90;;;;;;5003223;28;19921;-69
2022/04/22 00:53:49;;;;;;;;;;;9.60;99.90;;;;;;5007969;28;20376;-68
2022/04/22 00:56:15;;;;;;;;;;;9.70;99.90;;;;;;5005645;28;19925;-69
2022/04/22 00:58:42;;;;;;;;;;;9.50;99.90;;;;;;4999391;28;19930;-70
2022/04/22 01:01:07;;;;;;;;;;;9.40;99.90;;;;;;5006208;28;19943;-68
2022/04/22 01:03:33;;;;;;;;;;;9.40;99.90;;;;;;5002715;28;20348;-68
2022/04/22 01:11:32;;;;;;;;;;;9.30;99.90;;;;;;5013755;28;19929;-69
2022/04/22 01:14:01;;;;;;;;;;;9.30;99.90;;;;;;5009884;28;19934;-68
2022/04/22 01:16:27;;;;;;;;;;;9.30;99.90;;;;;;5002557;28;19921;-68
2022/04/22 01:18:53;;;;;;;;;;;9.20;99.90;;;;;;5005058;28;20016;-70
2022/04/22 01:21:18;;;;;;;;;;;9.20;99.90;;;;;;5012749;28;19984;-69
2022/04/22 01:23:44;;;;;;;;;;;9.20;99.90;;;;;;5008271;28;19926;-67
2022/04/22 01:26:10;;;;;;;;;;;9.20;99.90;;;;;;5010191;28;20260;-69
2022/04/22 01:28:36;;;;;;;;;;;9.30;99.90;;;;;;5010253;28;19928;-69
2022/04/22 01:31:02;;;;;;;;;;;9.10;99.90;;;;;;5009346;28;19921;-70
2022/04/22 01:33:27;;;;;;;;;;;9.10;99.90;;;;;;5009931;28;19922;-68
2022/04/22 01:35:53;;;;;;;;;;;9.00;99.90;;;;;;5009708;28;19922;-69
2022/04/22 01:38:18;;;;;;;;;;;9.10;99.90;;;;;;5003136;28;19922;-68
2022/04/22 01:40:44;;;;;;;;;;;8.90;99.90;;;;;;5011806;28;20019;-68
2022/04/22 01:43:09;;;;;;;;;;;8.90;99.90;;;;;;5012978;28;19930;-68
2022/04/22 01:45:35;;;;;;;;;;;8.80;99.90;;;;;;5001847;28;20324;-68
2022/04/22 01:48:01;;;;;;;;;;;8.80;99.90;;;;;;5004042;28;19943;-69
2022/04/22 01:50:26;;;;;;;;;;;8.70;99.90;;;;;;5009221;28;19949;-69
2022/04/22 01:52:52;;;;;;;;;;;8.70;99.90;;;;;;5000885;28;19967;-67
2022/04/22 01:55:18;;;;;;;;;;;8.80;99.90;;;;;;5002942;28;20697;-68
2022/04/22 01:57:44;;;;;;;;;;;8.60;99.90;;;;;;5005781;28;19964;-68
2022/04/22 02:00:10;;;;;;;;;;;8.60;99.90;;;;;;5009624;28;20271;-69
2022/04/22 02:02:36;;;;;;;;;;;8.50;99.90;;;;;;5003812;28;19961;-68
2022/04/22 02:05:02;;;;;;;;;;;8.50;99.90;;;;;;5000141;28;19965;-69
2022/04/22 02:07:27;;;;;;;;;;;8.50;99.90;;;;;;5009359;28;19921;-69
2022/04/22 02:09:53;;;;;;;;;;;8.50;99.90;;;;;;5006122;28;20522;-68
2022/04/22 02:12:18;;;;;;;;;;;8.60;99.90;;;;;;5010352;28;20410;-68
2022/04/22 02:14:44;;;;;;;;;;;8.50;99.90;;;;;;5006309;28;19945;-68
2022/04/22 02:17:09;;;;;;;;;;;8.40;99.90;;;;;;5002694;28;19953;-68
2022/04/22 02:19:35;;;;;;;;;;;8.40;99.90;;;;;;5006190;28;19922;-68
2022/04/22 02:22:01;;;;;;;;;;;8.40;99.90;;;;;;5003915;28;19922;-69
2022/04/22 02:24:26;;;;;;;;;;;8.40;99.90;;;;;;5010640;28;20368;-68
2022/04/22 02:29:39;;;;;;;;;;;8.50;99.90;;;;;;5012740;28;19940;-68
2022/04/22 02:32:05;;;;;;;;;;;8.20;99.90;;;;;;5007343;28;20008;-69
2022/04/22 02:34:31;;;;;;;;;;;8.20;99.90;;;;;;5006496;28;20312;-69
2022/04/22 02:36:56;;;;;;;;;;;8.20;99.90;;;;;;5001672;28;19952;-68
2022/04/22 02:39:22;;;;;;;;;;;8.10;99.90;;;;;;5010045;28;19922;-69
2022/04/22 02:47:16;;;;;;;;;;;8.00;99.90;;;;;;4998959;28;19945;-68
2022/04/22 02:49:44;;;;;;;;;;;7.90;99.90;;;;;;5005052;28;20245;-68
2022/04/22 02:52:15;;;;;;;;;;;8.00;99.90;;;;;;5006471;28;19968;-68
2022/04/22 02:54:41;;;;;;;;;;;7.90;99.90;;;;;;5003009;28;19992;-68
2022/04/22 02:57:07;;;;;;;;;;;7.90;99.90;;;;;;5009538;28;19943;-69
2022/04/22 02:59:33;;;;;;;;;;;7.80;99.90;;;;;;5010881;28;19921;-68
2022/04/22 03:01:59;;;;;;;;;;;8.50;99.90;;;;;;5005600;28;20272;-68
2022/04/22 03:04:25;;;;;;;;;;;7.80;99.90;;;;;;5002360;28;19921;-68
2022/04/22 03:06:51;;;;;;;;;;;7.80;99.90;;;;;;5008066;28;19917;-68
2022/04/22 03:09:16;;;;;;;;;;;9.30;99.90;;;;;;5001930;28;19971;-69
2022/04/22 03:11:42;;;;;;;;;;;8.20;99.90;;;;;;5009401;28;19921;-68
2022/04/22 03:14:07;;;;;;;;;;;8.00;99.90;;;;;;5000819;28;19921;-68
2022/04/22 03:16:33;;;;;;;;;;;7.90;99.90;;;;;;5003394;28;19960;-69
2022/04/22 03:18:59;;;;;;;;;;;7.80;99.90;;;;;;5008609;28;20322;-68
2022/04/22 03:21:25;;;;;;;;;;;7.80;99.90;;;;;;5018842;28;19997;-69
2022/04/22 03:23:51;;;;;;;;;;;7.70;99.90;;;;;;5004365;28;19967;-68
2022/04/22 03:26:16;;;;;;;;;;;7.70;99.90;;;;;;4998781;28;20020;-68
2022/04/22 03:28:45;;;;;;;;;;;7.70;99.90;;;;;;5020905;28;20011;-69
2022/04/22 03:31:11;;;;;;;;;;;7.60;99.90;;;;;;5007863;28;19925;-68
2022/04/22 03:33:36;;;;;;;;;;;7.70;99.90;;;;;;5006895;28;19921;-69
2022/04/22 03:36:02;;;;;;;;;;;7.70;99.90;;;;;;5003230;28;20368;-68
2022/04/22 03:38:28;;;;;;;;;;;7.60;99.90;;;;;;5012276;28;19928;-68
2022/04/22 03:40:53;;;;;;;;;;;7.60;99.90;;;;;;5007534;28;19922;-68
2022/04/22 03:43:20;;;;;;;;;;;7.50;99.90;;;;;;5001337;28;19984;-67
2022/04/22 03:45:45;;;;;;;;;;;7.50;99.90;;;;;;5008363;28;19924;-69
2022/04/22 03:48:12;;;;;;;;;;;7.50;99.90;;;;;;5020110;28;19921;-69
2022/04/22 03:50:38;;;;;;;;;;;7.50;99.90;;;;;;5004532;28;19928;-69
2022/04/22 03:53:04;;;;;;;;;;;6.80;99.90;;;;;;5009404;28;19921;-69
2022/04/22 03:55:30;;;;;;;;;;;7.40;99.90;;;;;;5005221;28;19925;-68
2022/04/22 03:58:10;;;;;;;;;;;7.30;99.90;;;;;;5010110;28;19921;-68
2022/04/22 04:00:39;;;;;;;;;;;7.40;99.90;;;;;;5008085;28;19926;-69
2022/04/22 04:03:06;;;;;;;;;;;7.30;99.90;;;;;;5001601;28;19921;-68
2022/04/22 04:05:32;;;;;;;;;;;7.40;99.90;;;;;;5007049;28;20004;-68
2022/04/22 04:07:57;;;;;;;;;;;7.30;99.90;;;;;;5010068;28;19926;-68
2022/04/22 04:16:00;;;;;;;;;;;7.10;99.90;;;;;;4999903;28;19968;-69
2022/04/22 04:18:33;;;;;;;;;;;7.10;99.90;;;;;;5005525;28;20394;-68
2022/04/22 04:23:44;;;;;;;;;;;7.00;99.90;;;;;;5008917;28;19922;-68
2022/04/22 04:26:09;;;;;;;;;;;7.00;99.90;;;;;;5007516;28;19929;-68
2022/04/22 04:28:35;;;;;;;;;;;7.00;99.90;;;;;;5006185;28;19922;-69
2022/04/22 04:31:01;;;;;;;;;;;8.30;99.90;;;;;;5000120;28;19975;-68
2022/04/22 04:33:27;;;;;;;;;;;7.00;99.90;;;;;;5002705;28;19921;-68
2022/04/22 04:35:53;;;;;;;;;;;7.00;99.90;;;;;;5006814;28;19964;-69
2022/04/22 04:38:20;;;;;;;;;;;6.90;99.90;;;;;;4998299;28;20368;-68
2022/04/22 04:40:45;;;;;;;;;;;6.90;99.90;;;;;;5009694;28;20307;-68
2022/04/22 04:43:11;;;;;;;;;;;6.90;99.90;;;;;;5020115;28;19929;-68
2022/04/22 04:45:37;;;;;;;;;;;6.90;99.90;;;;;;5007589;28;20336;-68
2022/04/22 04:48:03;;;;;;;;;;;6.90;99.90;;;;;;5004815;28;19922;-68
2022/04/22 04:50:29;;;;;;;;;;;6.80;99.90;;;;;;4998821;28;20318;-68
2022/04/22 04:52:54;;;;;;;;;;;6.90;99.90;;;;;;5002220;28;19921;-69
2022/04/22 04:55:20;;;;;;;;;;;6.90;99.90;;;;;;5009261;28;19921;-69
2022/04/22 04:57:45;;;;;;;;;;;6.90;99.90;;;;;;5003645;28;19921;-68
2022/04/22 05:00:11;;;;;;;;;;;6.90;99.90;;;;;;5020451;28;19921;-68
2022/04/22 05:02:38;;;;;;;;;;;6.90;99.90;;;;;;5003238;28;19961;-69
2022/04/22 05:05:07;;;;;;;;;;;6.90;99.90;;;;;;5006933;28;19927;-67
2022/04/22 05:07:33;;;;;;;;;;;6.90;99.90;;;;;;5004092;28;20394;-66
2022/04/22 05:09:58;;;;;;;;;;;7.00;99.90;;;;;;5004735;28;20088;-68
2022/04/22 05:12:24;;;;;;;;;;;7.00;99.90;;;;;;5006962;28;21569;-68
2022/04/22 05:14:50;;;;;;;;;;;7.20;99.90;;;;;;5003461;28;19968;-67
2022/04/22 05:17:15;;;;;;;;;;;7.00;99.90;;;;;;4998782;28;19984;-68
2022/04/22 05:19:41;;;;;;;;;;;8.50;99.90;;;;;;5005638;28;19932;-69
2022/04/22 05:22:06;;;;;;;;;;;7.10;99.90;;;;;;5001320;28;19961;-69
2022/04/22 05:24:32;;;;;;;;;;;7.20;99.90;;;;;;4999737;28;19957;-69
2022/04/22 05:26:59;;;;;;;;;;;7.20;99.90;;;;;;5003326;28;19921;-69
2022/04/22 05:32:47;;;;;;;;;;;7.30;99.90;;;;;;5002988;28;20009;-68
2022/04/22 05:35:00;;;;;;;;;;;7.40;99.90;;;;;;5007904;28;19929;-68
2022/04/22 05:37:25;;;;;;;;;;;7.70;99.90;;;;;;5005801;28;19968;-68
2022/04/22 05:39:51;;;;;;;;;;;7.90;99.90;;;;;;5004335;28;19929;-68
2022/04/22 05:42:16;;;;;;;;;;;8.20;99.90;;;;;;5019883;28;19925;-68
2022/04/22 05:44:42;;;;;;;;;;;8.40;99.90;;;;;;5001072;28;19928;-67
2022/04/22 05:47:08;;;;;;;;;;;8.50;99.90;;;;;;5001782;28;19921;-68
2022/04/22 05:49:34;;;;;;;;;;;8.50;99.90;;;;;;5001951;28;19976;-68
2022/04/22 05:51:59;;;;;;;;;;;8.50;99.90;;;;;;5005555;28;19921;-67
2022/04/22 05:54:25;;;;;;;;;;;8.50;99.90;;;;;;5007232;28;19937;-67
2022/04/22 05:56:50;;;;;;;;;;;9.90;99.90;;;;;;5008688;28;20032;-69
2022/04/22 05:59:16;;;;;;;;;;;8.50;99.90;;;;;;5009235;28;19926;-69
2022/04/22 06:01:41;;;;;;;;;;;8.70;99.90;;;;;;5002218;28;19961;-68
2022/04/22 06:04:07;;;;;;;;;;;8.60;99.90;;;;;;5010619;28;19921;-69
2022/04/22 06:06:32;;;;;;;;;;;8.70;99.90;;;;;;5004815;28;19921;-68
2022/04/22 06:11:42;;;;;;;;;;;8.90;99.90;;;;;;5006081;28;20367;-68
2022/04/22 06:14:09;;;;;;;;;;;9.10;99.90;;;;;;5025166;28;19928;-69
2022/04/22 06:16:35;;;;;;;;;;;9.20;99.90;;;;;;5005904;28;20360;-69
2022/04/22 06:19:00;;;;;;;;;;;9.50;99.90;;;;;;4999490;28;19975;-69
2022/04/22 06:21:29;;;;;;;;;;;10.80;99.90;;;;;;4996878;28;19973;-68
2022/04/22 06:23:54;;;;;;;;;;;10.50;99.90;;;;;;5010718;28;19925;-68
2022/04/22 06:26:20;;;;;;;;;;;10.90;99.90;;;;;;5008756;28;20667;-67
2022/04/22 06:28:45;;;;;;;;;;;11.30;99.90;;;;;;4996174;28;19925;-69
2022/04/22 06:31:11;;;;;;;;;;;11.50;99.90;;;;;;5010823;28;19925;-68
2022/04/22 06:33:38;;;;;;;;;;;11.70;99.90;;;;;;5011998;28;19925;-68
2022/04/22 06:36:06;;;;;;;;;;;11.80;99.90;;;;;;5004432;28;20059;-69
2022/04/22 06:38:35;;;;;;;;;;;12.00;99.90;;;;;;5007370;28;19948;-70
2022/04/22 06:46:29;;;;;;;;;;;11.70;99.90;;;;;;4999793;28;20440;-69
2022/04/22 06:48:55;;;;;;;;;;;11.50;99.90;;;;;;5015044;28;19927;-68
2022/04/22 06:51:23;;;;;;;;;;;11.40;99.90;;;;;;5013436;28;19922;-67
2022/04/22 06:53:52;;;;;;;;;;;11.50;99.90;;;;;;5012875;28;20375;-68
2022/04/22 06:56:21;;;;;;;;;;;11.70;99.90;;;;;;5013486;28;19929;-68
2022/04/22 06:58:47;;;;;;;;;;;12.30;99.90;;;;;;5002727;28;19921;-68
2022/04/22 07:01:13;;;;;;;;;;;12.00;99.90;;;;;;4997723;28;19968;-68
2022/04/22 07:03:38;;;;;;;;;;;12.00;99.90;;;;;;5001643;28;19921;-69
2022/04/22 07:06:04;;;;;;;;;;;11.80;99.90;;;;;;5014708;28;19921;-69
2022/04/22 07:08:30;;;;;;;;;;;11.90;99.90;;;;;;5014871;28;19921;-69
2022/04/22 07:10:59;;;;;;;;;;;11.60;99.90;;;;;;5008696;28;19993;-68
2022/04/22 07:13:24;;;;;;;;;;;11.50;99.90;;;;;;5006940;28;19921;-68
2022/04/22 07:15:50;;;;;;;;;;;11.50;99.90;;;;;;5012756;28;19922;-68
2022/04/22 07:18:16;;;;;;;;;;;11.50;99.90;;;;;;5009906;28;19931;-67
2022/04/22 07:20:42;;;;;;;;;;;11.40;99.90;;;;;;5019670;28;20406;-70
2022/04/22 07:23:12;;;;;;;;;;;11.50;99.90;;;;;;5005027;28;19921;-68
2022/04/22 07:25:38;;;;;;;;;;;11.50;99.90;;;;;;5007147;28;19944;-68
2022/04/22 07:28:04;;;;;;;;;;;11.50;99.90;;;;;;5006625;28;19921;-68
2022/04/22 07:30:30;;;;;;;;;;;11.50;99.90;;;;;;5013761;28;19922;-69
2022/04/22 07:32:56;;;;;;;;;;;11.70;99.90;;;;;;5014324;28;19925;-68
2022/04/22 07:35:21;;;;;;;;;;;11.70;99.90;;;;;;5006583;28;19971;-66
2022/04/22 07:37:49;;;;;;;;;;;11.80;99.90;;;;;;5017661;28;20017;-68
2022/04/22 07:40:15;;;;;;;;;;;11.80;99.90;;;;;;5001217;28;20290;-68
2022/04/22 07:46:46;;;;;;;;;;;11.90;99.90;;;;;;4997400;28;19983;-66
2022/04/22 07:48:14;;;;;;;;;;;12.00;99.90;;;;;;4998729;28;20430;-68
2022/04/22 07:50:40;;;;;;;;;;;12.10;99.90;;;;;;5012538;28;20012;-68
2022/04/22 07:53:05;;;;;;;;;;;12.20;99.90;;;;;;5010493;28;20363;-68
2022/04/22 07:55:31;;;;;;;;;;;12.30;99.90;;;;;;5013359;28;19921;-68
2022/04/22 07:57:57;;;;;;;;;;;12.40;99.90;;;;;;5026220;28;19921;-68
2022/04/22 08:00:22;;;;;;;;;;;12.60;99.90;;;;;;4993118;28;19926;-69
2022/04/22 08:02:48;;;;;;;;;;;12.70;99.90;;;;;;5008772;28;19921;-67
2022/04/22 08:05:13;;;;;;;;;;;12.80;99.90;;;;;;4995732;28;19928;-68
2022/04/22 08:07:40;;;;;;;;;;;12.60;99.90;;;;;;5013441;28;19921;-69
2022/04/22 08:10:06;;;;;;;;;;;12.60;99.90;;;;;;5013868;28;19921;-69
2022/04/22 08:12:33;;;;;;;;;;;12.80;99.90;;;;;;5027152;28;19968;-68
2022/04/22 08:14:58;;;;;;;;;;;12.80;99.90;;;;;;4996184;28;19929;-68
2022/04/22 08:17:24;;;;;;;;;;;12.90;99.90;;;;;;5013533;28;19921;-68
2022/04/22 08:19:49;;;;;;;;;;;13.00;99.90;;;;;;5012950;28;19921;-67
2022/04/22 08:22:15;;;;;;;;;;;13.10;99.90;;;;;;5013752;28;19921;-68
2022/04/22 08:24:40;;;;;;;;;;;13.20;99.90;;;;;;5013456;28;19979;-68
2022/04/22 08:27:06;;;;;;;;;;;13.30;99.90;;;;;;5012778;28;19928;-68
2022/04/22 08:29:33;;;;;;;;;;;13.50;99.90;;;;;;5012749;28;19921;-68
2022/04/22 08:31:58;;;;;;;;;;;13.60;99.90;;;;;;5013248;28;20022;-70
2022/04/22 08:34:24;;;;;;;;;;;13.60;99.90;;;;;;5008994;28;19961;-68
2022/04/22 08:36:49;;;;;;;;;;;13.80;99.90;;;;;;5013359;28;20302;-69
2022/04/22 08:39:15;;;;;;;;;;;13.80;99.70;;;;;;5012742;28;20392;-67
2022/04/22 08:41:41;;;;;;;;;;;13.90;99.70;;;;;;5013087;28;19921;-69
2022/04/22 08:44:07;;;;;;;;;;;14.00;99.80;;;;;;4994458;28;19922;-68
2022/04/22 08:52:02;;;;;;;;;;;14.20;99.20;;;;;;5012783;28;19988;-67
2022/04/22 08:54:28;;;;;;;;;;;14.30;98.80;;;;;;5013024;28;19921;-68
2022/04/22 08:56:57;;;;;;;;;;;14.40;98.70;;;;;;5011649;28;20356;-69
2022/04/22 08:59:25;;;;;;;;;;;14.30;98.60;;;;;;5011513;28;19925;-68
2022/04/22 09:01:51;;;;;;;;;;;14.20;98.30;;;;;;5011345;28;19973;-69
2022/04/22 09:04:19;;;;;;;;;;;14.30;98.70;;;;;;4995340;28;20287;-69
2022/04/22 09:06:47;;;;;;;;;;;14.30;98.60;;;;;;5012357;28;19928;-69
2022/04/22 09:09:12;;;;;;;;;;;14.50;98.40;;;;;;5012921;28;19921;-68
2022/04/22 09:11:44;;;;;;;;;;;14.50;98.30;;;;;;5007650;28;20415;-69
2022/04/22 09:14:13;;;;;;;;;;;14.80;97.80;;;;;;4991508;28;20014;-69
2022/04/22 09:16:40;;;;;;;;;;;14.90;97.90;;;;;;5008538;28;20275;-69
2022/04/22 09:19:06;;;;;;;;;;;15.10;98.30;;;;;;5012692;28;19929;-70
2022/04/22 09:21:31;;;;;;;;;;;15.20;97.30;;;;;;5010170;28;19917;-69
2022/04/22 09:24:09;;;;;;;;;;;15.10;97.10;;;;;;5014098;28;20378;-69
2022/04/22 09:26:34;;;;;;;;;;;15.10;97.10;;;;;;5013309;28;19921;-68
2022/04/22 09:29:01;;;;;;;;;;;15.00;96.60;;;;;;4997129;28;19928;-69
2022/04/22 09:31:27;;;;;;;;;;;15.20;96.70;;;;;;4996951;28;19961;-70
2022/04/22 09:33:53;;;;;;;;;;;15.20;97.00;;;;;;4995715;28;20048;-69
2022/04/22 09:44:51;;;;;;;;;;;15.50;96.70;;;;;;5013110;28;19928;-70
2022/04/22 09:47:18;;;;;;;;;;;15.50;96.30;;;;;;5030580;28;20395;-69
2022/04/22 09:49:43;;;;;;;;;;;15.60;96.20;;;;;;5015910;28;20350;-67
2022/04/22 09:52:09;;;;;;;;;;;15.70;95.50;;;;;;5013980;28;19968;-69
2022/04/22 09:54:34;;;;;;;;;;;15.60;95.50;;;;;;5027563;28;19929;-69
2022/04/22 09:57:01;;;;;;;;;;;16.20;95.70;;;;;;5010549;28;19922;-68
2022/04/22 09:59:27;;;;;;;;;;;15.90;95.50;;;;;;4997704;28;19975;-68
2022/04/22 10:01:55;;;;;;;;;;;16.20;94.40;;;;;;5014508;28;20345;-69
2022/04/22 10:04:21;;;;;;;;;;;16.40;94.70;;;;;;5015881;28;20027;-67
2022/04/22 10:06:48;;;;;;;;;;;16.40;94.50;;;;;;5014496;28;19928;-67
2022/04/22 10:09:16;;;;;;;;;;;16.70;94.20;;;;;;5015345;28;20052;-68
2022/04/22 10:11:43;;;;;;;;;;;17.00;94.50;;;;;;5015619;28;19999;-68
2022/04/22 10:14:09;;;;;;;;;;;16.90;92.70;;;;;;5014323;28;19937;-69
2022/04/22 10:16:35;;;;;;;;;;;17.00;92.60;;;;;;5008291;28;19921;-69
2022/04/22 10:19:04;;;;;;;;;;;16.80;92.50;;;;;;5003061;28;19921;-71
2022/04/22 10:21:30;;;;;;;;;;;17.00;93.00;;;;;;5010268;28;19974;-70
2022/04/22 10:23:56;;;;;;;;;;;17.10;92.80;;;;;;5010040;28;19921;-69
2022/04/22 10:26:22;;;;;;;;;;;17.30;92.60;;;;;;5006404;28;20335;-69
2022/04/22 10:28:48;;;;;;;;;;;17.30;91.90;;;;;;5005579;28;19925;-68
2022/04/22 10:31:14;;;;;;;;;;;17.40;91.90;;;;;;5003750;28;20343;-69
2022/04/22 10:33:45;;;;;;;;;;;17.40;90.90;;;;;;5007840;28;20023;-70
2022/04/22 10:36:11;;;;;;;;;;;17.20;91.00;;;;;;4998774;28;19975;-69
2022/04/22 10:38:38;;;;;;;;;;;17.30;90.80;;;;;;5004408;28;20008;-69
2022/04/22 10:41:12;;;;;;;;;;;17.40;91.20;;;;;;5012175;28;19921;-69
2022/04/22 10:43:37;;;;;;;;;;;17.60;91.00;;;;;;5000433;28;19922;-70
2022/04/22 10:49:06;;;;;;;;;;;18.20;91.10;;;;;;5009895;28;19928;-67
2022/04/22 10:51:50;;;;;;;;;;;18.30;89.80;;;;;;5002284;28;19921;-68
2022/04/22 10:54:20;;;;;;;;;;;18.20;87.50;;;;;;5009165;28;19987;-67
2022/04/22 10:56:45;;;;;;;;;;;18.40;87.20;;;;;;5005121;28;19968;-69
2022/04/22 10:59:20;;;;;;;;;;;18.60;86.40;;;;;;5004603;28;19925;-68
2022/04/22 11:01:46;;;;;;;;;;;18.30;86.10;;;;;;5012548;28;19921;-68
2022/04/22 11:04:18;;;;;;;;;;;18.30;85.30;;;;;;5013575;28;19943;-67
2022/04/22 11:06:44;;;;;;;;;;;18.40;84.80;;;;;;5011355;28;19976;-69
2022/04/22 11:09:10;;;;;;;;;;;18.60;84.60;;;;;;5007594;28;19925;-68
2022/04/22 11:11:40;;;;;;;;;;;18.60;83.30;;;;;;5004545;28;19948;-68
2022/04/22 11:14:16;;;;;;;;;;;18.80;83.40;;;;;;5000296;28;19968;-68
2022/04/22 11:16:42;;;;;;;;;;;19.20;84.30;;;;;;5003395;28;19976;-68
2022/04/22 11:19:08;;;;;;;;;;;19.10;81.10;;;;;;5003054;28;20036;-68
2022/04/22 11:21:36;;;;;;;;;;;19.10;81.10;;;;;;5007374;28;20382;-68
2022/04/22 11:24:09;;;;;;;;;;;19.20;80.40;;;;;;5005264;28;19922;-68
2022/04/22 11:26:35;;;;;;;;;;;19.10;80.30;;;;;;4997967;28;20418;-68
2022/04/22 11:29:02;;;;;;;;;;;19.30;80.20;;;;;;5010486;28;19930;-67
2022/04/22 11:31:28;;;;;;;;;;;19.30;79.30;;;;;;5008977;28;20291;-69
2022/04/22 11:33:56;;;;;;;;;;;19.20;78.30;;;;;;5003263;28;19923;-69
2022/04/22 11:36:26;;;;;;;;;;;19.10;80.50;;;;;;5007897;28;19925;-68
2022/04/22 11:38:55;;;;;;;;;;;19.20;78.30;;;;;;4999762;28;20367;-69
2022/04/22 11:41:24;;;;;;;;;;;19.10;77.60;;;;;;5008397;28;19970;-68
2022/04/22 11:43:50;;;;;;;;;;;19.40;78.80;;;;;;5014335;28;19922;-69
2022/04/22 11:46:16;;;;;;;;;;;19.60;75.70;;;;;;5004844;28;19921;-67
2022/04/22 11:48:53;;;;;;;;;;;19.90;76.90;;;;;;5007304;28;19925;-68
2022/04/22 11:51:19;;;;;;;;;;;19.80;75.50;;;;;;5010223;28;20348;-69
2022/04/22 11:53:49;;;;;;;;;;;19.80;74.50;;;;;;5005549;28;20411;-68
2022/04/22 11:56:21;;;;;;;;;;;20.10;76.00;;;;;;4999734;28;19922;-69
2022/04/22 11:58:51;;;;;;;;;;;20.20;75.80;;;;;;5009965;28;19922;-69
2022/04/22 12:06:45;;;;;;;;;;;20.60;72.10;;;;;;5007725;28;19922;-68
2022/04/22 12:09:10;;;;;;;;;;;20.60;71.70;;;;;;5003637;28;19921;-69
2022/04/22 12:11:43;;;;;;;;;;;20.60;70.70;;;;;;5002740;28;20003;-68
2022/04/22 12:14:10;;;;;;;;;;;20.60;72.00;;;;;;5001076;28;19921;-68
2022/04/22 12:16:36;;;;;;;;;;;20.40;70.00;;;;;;4997611;28;20029;-69
2022/04/22 12:19:02;;;;;;;;;;;20.50;71.10;;;;;;5007831;28;19921;-68
2022/04/22 12:21:31;;;;;;;;;;;20.60;69.70;;;;;;4998948;28;19940;-67
2022/04/22 12:23:59;;;;;;;;;;;20.80;72.10;;;;;;5004688;28;20437;-68
2022/04/22 12:26:26;;;;;;;;;;;20.90;71.30;;;;;;4999463;28;20441;-68
2022/04/22 12:28:55;;;;;;;;;;;21.00;71.70;;;;;;5004305;28;19930;-69
2022/04/22 12:31:21;;;;;;;;;;;21.50;72.10;;;;;;5006669;28;20382;-68
2022/04/22 12:33:55;;;;;;;;;;;21.40;67.40;;;;;;4998830;28;20260;-69
2022/04/22 12:36:20;;;;;;;;;;;21.70;66.80;;;;;;4998445;28;20012;-68
2022/04/22 12:38:46;;;;;;;;;;;21.50;67.20;;;;;;5024218;28;20026;-68
2022/04/22 12:41:16;;;;;;;;;;;21.40;69.00;;;;;;5008306;28;19921;-69
2022/04/22 12:43:45;;;;;;;;;;;21.20;66.90;;;;;;5004512;28;20335;-69
2022/04/22 12:52:22;;;;;;;;;;;21.60;68.40;;;;;;4979955;28;19929;-69
2022/04/22 12:54:48;;;;;;;;;;;22.00;68.90;;;;;;4991502;28;19921;-67
2022/04/22 12:57:19;;;;;;;;;;;22.00;67.00;;;;;;5003808;28;19929;-66
2022/04/22 12:59:46;;;;;;;;;;;22.10;67.00;;;;;;4990996;28;19921;-67
2022/04/22 13:02:14;;;;;;;;;;;22.00;66.30;;;;;;5012899;28;19922;-68
2022/04/22 13:04:50;;;;;;;;;;;21.90;66.10;;;;;;5013876;28;20337;-71
2022/04/22 13:07:15;;;;;;;;;;;21.60;66.30;;;;;;5014162;28;19921;-68
2022/04/22 13:09:41;;;;;;;;;;;22.00;67.40;;;;;;5027217;28;20017;-69
2022/04/22 13:12:07;;;;;;;;;;;21.70;67.00;;;;;;5012227;28;19937;-68
2022/04/22 13:14:33;;;;;;;;;;;21.90;66.70;;;;;;5010455;28;19926;-68
2022/04/22 13:17:02;;;;;;;;;;;22.10;66.80;;;;;;5010323;28;19928;-67
2022/04/22 13:19:28;;;;;;;;;;;22.30;67.00;;;;;;5010161;28;19926;-69
2022/04/22 13:21:54;;;;;;;;;;;22.40;65.30;;;;;;5006417;28;20272;-68
2022/04/22 13:24:20;;;;;;;;;;;22.30;65.50;;;;;;5004178;28;19988;-68
2022/04/22 13:26:49;;;;;;;;;;;21.80;67.60;;;;;;5008516;28;20011;-69
2022/04/22 13:29:15;;;;;;;;;;;22.20;66.40;;;;;;5012122;28;19929;-68
2022/04/22 13:31:40;;;;;;;;;;;22.40;65.00;;;;;;5014227;28;19921;-68
2022/04/22 13:34:06;;;;;;;;;;;22.80;65.10;;;;;;5012235;28;19931;-67
2022/04/22 13:36:32;;;;;;;;;;;22.70;64.70;;;;;;5008250;28;19936;-67
2022/04/22 13:38:57;;;;;;;;;;;23.00;64.80;;;;;;5014921;28;19925;-68
2022/04/22 13:41:23;;;;;;;;;;;22.80;63.90;;;;;;5005008;28;19929;-69
2022/04/22 13:43:48;;;;;;;;;;;22.80;63.60;;;;;;5011775;28;19925;-69
2022/04/22 13:54:29;;;;;;;;;;;21.90;64.70;;;;;;5010064;28;19926;-68
2022/04/22 13:56:55;;;;;;;;;;;21.60;66.50;;;;;;5010115;28;19927;-68
2022/04/22 13:59:21;;;;;;;;;;;21.40;66.00;;;;;;5025136;28;20339;-68
2022/04/22 14:01:46;;;;;;;;;;;21.50;67.30;;;;;;5006912;28;19921;-68
2022/04/22 14:04:12;;;;;;;;;;;21.80;65.90;;;;;;5006881;28;19929;-67
2022/04/22 14:06:37;;;;;;;;;;;22.00;65.20;;;;;;5005208;28;20392;-67
2022/04/22 14:09:03;;;;;;;;;;;22.40;64.60;;;;;;5012127;28;19949;-68
2022/04/22 14:11:30;;;;;;;;;;;21.90;64.60;;;;;;4993791;28;19976;-68
2022/04/22 14:13:59;;;;;;;;;;;22.00;64.40;;;;;;5012539;28;20058;-67
2022/04/22 14:16:24;;;;;;;;;;;21.90;64.40;;;;;;5015337;28;20393;-68
2022/04/22 14:18:50;;;;;;;;;;;22.10;64.70;;;;;;5009181;28;19921;-68
2022/04/22 14:21:16;;;;;;;;;;;21.50;64.70;;;;;;5006364;28;20007;-69
2022/04/22 14:23:41;;;;;;;;;;;20.90;66.20;;;;;;4994970;28;19929;-67
2022/04/22 14:26:08;;;;;;;;;;;20.20;67.50;;;;;;5002483;28;19929;-68
2022/04/22 14:28:33;;;;;;;;;;;19.50;68.40;;;;;;5009651;28;20390;-68
2022/04/22 14:31:01;;;;;;;;;;;19.10;70.50;;;;;;5009246;28;19975;-69
2022/04/22 14:33:26;;;;;;;;;;;18.90;71.60;;;;;;5004205;28;20361;-70
2022/04/22 14:35:56;;;;;;;;;;;18.90;71.10;;;;;;4989175;28;19921;-68
2022/04/22 14:38:22;;;;;;;;;;;18.70;71.20;;;;;;4998206;28;19929;-69
2022/04/22 14:40:48;;;;;;;;;;;18.50;72.10;;;;;;5007621;28;19927;-67
2022/04/22 14:43:13;;;;;;;;;;;18.50;73.10;;;;;;5008518;28;19921;-69
2022/04/22 14:45:39;;;;;;;;;;;18.60;73.00;;;;;;5002731;28;20394;-69
2022/04/22 14:48:04;;;;;;;;;;;18.60;72.70;;;;;;5014558;28;20395;-69
2022/04/22 14:50:33;;;;;;;;;;;18.40;72.40;;;;;;5008724;28;20115;-68
2022/04/22 14:52:59;;;;;;;;;;;18.30;72.50;;;;;;5007503;28;19925;-69
2022/04/22 14:55:24;;;;;;;;;;;18.10;72.60;;;;;;5002998;28;19932;-68
2022/04/22 14:57:50;;;;;;;;;;;18.30;74.40;;;;;;5010437;28;20328;-68
2022/04/22 15:00:16;;;;;;;;;;;18.00;74.70;;;;;;5011568;28;19925;-69
2022/04/22 15:02:41;;;;;;;;;;;18.00;74.10;;;;;;5010114;28;20000;-68
2022/04/22 15:05:08;;;;;;;;;;;18.10;74.20;;;;;;5003617;28;20290;-68
2022/04/22 15:07:34;;;;;;;;;;;18.10;74.40;;;;;;5009077;28;19925;-68
2022/04/22 15:10:00;;;;;;;;;;;18.10;74.20;;;;;;4997631;28;19926;-68
2022/04/22 15:12:28;;;;;;;;;;;18.20;75.20;;;;;;5006865;28;19932;-69
2022/04/22 15:14:53;;;;;;;;;;;18.10;75.80;;;;;;4997903;28;19969;-68
2022/04/22 15:24:09;;;;;;;;;;;18.20;74.90;;;;;;4994342;28;19984;-67
2022/04/22 15:25:37;;;;;;;;;;;18.00;73.50;;;;;;4992005;28;19925;-70
2022/04/22 15:28:03;;;;;;;;;;;17.90;73.80;;;;;;4996422;28;19932;-69
2022/04/22 15:30:48;;;;;;;;;;;17.70;74.00;;;;;;5007321;28;20383;-73
2022/04/22 15:33:13;;;;;;;;;;;17.60;74.80;;;;;;5004067;28;19931;-68
2022/04/22 15:35:39;;;;;;;;;;;17.40;75.30;;;;;;4996349;28;20371;-68